Hordafor III — LLVC — position and weather

sailwx.info

Track history (hours):
 
Tides and Currents Weather Stations Pressure Air Temp Water Temp Dewpoint Dewpoint Depression Visibility Wind Speed Wind Dir Waves Ship Positions

Hordafor III

Last reported at 2015-Mar-28 08:33 UTC. Time now 2015-Mar-31 16:57 UTC.
Position N 63°35' E 009°26'.

Length 50 m; draft 5.2 m.

Type: Ship. MMSI: 258044000.

Date/timePositionNaut miles runAvg speedWind from/ knotsBaromVisibWave heightAir tempDewpointWater temp
2015-Mar-28 08:33N 63°35' E 009°26'89 9.9
2015-Mar-27 23:33N 64°51' E 011°13'1010.2
2015-Mar-27 22:33N 64°57' E 011°31'1410.6
2015-Mar-27 21:13N 65°09' E 011°50'68 9.9
2015-Mar-27 14:23N 66°14' E 012°36'8 9.2
2015-Mar-27 13:33N 66°19' E 012°23'3 2.8
2015-Mar-27 12:33N 66°22' E 012°22'0 0.0
2015-Mar-27 11:33N 66°22' E 012°22'0 0.1
2015-Mar-27 10:33N 66°22' E 012°23'0 0.0
2015-Mar-27 09:33N 66°22' E 012°23'0 0.0
2015-Mar-27 08:33N 66°22' E 012°23'0 0.0
2015-Mar-27 07:33N 66°22' E 012°23'1 0.6
2015-Mar-27 06:33N 66°22' E 012°24'10 9.2
2015-Mar-27 05:30N 66°14' E 012°38'6310.5
2015-Mar-26 23:27N 65°13' E 011°54'1010.9
2015-Mar-26 22:33N 65°04' E 011°45'10 9.7
2015-Mar-26 21:33N 64°57' E 011°29'1010.0
2015-Mar-26 20:33N 64°50' E 011°11'8510.2
2015-Mar-26 12:11N 63°38' E 009°27'59 5.5
2015-Mar-26 01:32N 63°07' E 007°35'  
Track history (hours):
 
Tides and Currents Weather Stations Pressure Air Temp Water Temp Dewpoint Dewpoint Depression Visibility Wind Speed Wind Dir Waves Ship Positions

Hordafor III

Last reported at 2015-Mar-28 08:33 UTC. Time now 2015-Mar-31 16:57 UTC.
Position N 63°35' E 009°26'.

Length 50 m; draft 5.2 m.

Type: Ship. MMSI: 258044000.

Date/timePositionNaut miles runAvg speedWind from/ knotsBaromVisibWave heightAir tempDewpointWater temp
2015-Mar-28 08:33N 63°35' E 009°26'89 9.9
2015-Mar-27 23:33N 64°51' E 011°13'1010.2
2015-Mar-27 22:33N 64°57' E 011°31'1410.6
2015-Mar-27 21:13N 65°09' E 011°50'68 9.9
2015-Mar-27 14:23N 66°14' E 012°36'8 9.2
2015-Mar-27 13:33N 66°19' E 012°23'3 2.8
2015-Mar-27 12:33N 66°22' E 012°22'0 0.0
2015-Mar-27 11:33N 66°22' E 012°22'0 0.1
2015-Mar-27 10:33N 66°22' E 012°23'0 0.0
2015-Mar-27 09:33N 66°22' E 012°23'0 0.0
2015-Mar-27 08:33N 66°22' E 012°23'0 0.0
2015-Mar-27 07:33N 66°22' E 012°23'1 0.6
2015-Mar-27 06:33N 66°22' E 012°24'10 9.2
2015-Mar-27 05:30N 66°14' E 012°38'6310.5
2015-Mar-26 23:27N 65°13' E 011°54'1010.9
2015-Mar-26 22:33N 65°04' E 011°45'10 9.7
2015-Mar-26 21:33N 64°57' E 011°29'1010.0
2015-Mar-26 20:33N 64°50' E 011°11'8510.2
2015-Mar-26 12:11N 63°38' E 009°27'59 5.5
2015-Mar-26 01:32N 63°07' E 007°35'  

Dump ship's entire track history